Oskaloosa, KS (66066)

3:40 AM CST on January 24, 2017 (GMT -0600)
Lakeridge | | Change Station

Elev 1023 ft 39.16 °N, 95.48 °W | Updated 32 seconds ago

Clear
Clear
32.4 °F
Feels Like 32 °F
N
1.6
Wind Variable Wind from NE
Gusts 3.8 mph

Today
High -- | Low -- °F
--% Chance of Precip.
Yesterday
High -- | Low -- °F
Precip. -- in
Pressure 29.78 in
Visibility 4.0 miles
Clouds Clear
Windchill 32 °F
Dew Point 26 °F
Humidity 77%
Rainfall 0.00 in
Snow Depth Not available.
7:34 AM 5:33 PM
Waning Crescent, 13% visible
METAR KLWC 240852Z AUTO 09008KT 4SM BR CLR M01/M01 A2977 RMK AO2 SLP084 T10111011 58012
Pressure 29.78 in
Visibility 4.0 miles
Clouds Clear
Windchill 32 °F
Dew Point 26 °F
Humidity 77%
Rainfall 0.00 in
Snow Depth Not available.
7:34 AM 5:33 PM
Waning Crescent, 13% visible
METAR KLWC 240852Z AUTO 09008KT 4SM BR CLR M01/M01 A2977 RMK AO2 SLP084 T10111011 58012

Get Your Daily Forecast Email!

Thanks for signing up!

Be on the lookout for a verification email in your inbox.

You'll start receiving the daily forecast at 8 AM.

×

10-Day Weather Forecast

Almanac

Astronomy

Jan. 24, 2017 Rise Set
Actual Time
Civil Twilight
Nautical Twilight
Astronomical Twilight
Moon
Length of Visible Light
Length of Day
Tomorrow will be .
, % of the Moon is Illuminated

Today's Extremes

State Highs State Lows

Community

WunderPhotos

Upload Photos

1,962,540 photos uploaded!

WunderBlog® & News

Nearby

Air Quality

  Air Quality AQ Index Pollutant
Not available.

Snow Depth

Station Depth Elevation

Earthquake Activity

City Distance Mag. Time & Date
Minimum magnitude displayed is 2.5.

Coastal Water Temperatures

Place Temperature

Stations

Nearby Weather Stations

Station Location Temp. Windchill Dew Point Humidity Wind Precip. Elev Updated Type
                   

Watches & Warnings

There are currently no watches in effect.